This is the latest recevied weather packets stored in our database for station/object KE2GQQ. If no packets are shown the sender has not sent any weather packets the latest 10 day(s).
| Time | Temp. | Humidity | Pressure | Rain* | Wind** | Luminosity | Snow |
|---|---|---|---|---|---|---|---|
| 1777884916 | 10° C | 60% | 1013.3 hPa | 0 mm | - | 0 W/m² | - |
| 1777883716 | 11.11° C | 57% | 1013.2 hPa | 0 mm | - | 0 W/m² | - |
| 1777881916 | 11.67° C | 52% | 1013.1 hPa | 0 mm | - | 0 W/m² | - |
| 1777877148 | 8.33° C | 68% | 1012.7 hPa | 0 mm | - | 0 W/m² | - |
| 1777875319 | 8.33° C | 66% | 1012.7 hPa | 0 mm | - | 0 W/m² | - |
| 1777867837 | 6.67° C | 74% | 1012.2 hPa | 0 mm | - | 0 W/m² | - |
| 1777864818 | 7.22° C | 72% | 1012.1 hPa | 0 mm | - | 0 W/m² | - |
| 1777864218 | 7.22° C | 72% | 1012.2 hPa | 0 mm | - | 0 W/m² | - |
| 1777863638 | 7.22° C | 71% | 1012.1 hPa | 0 mm | - | 0 W/m² | - |
| 1777861818 | 8.33° C | 68% | 1012.2 hPa | 0 mm | - | 0 W/m² | - |
| 1777852816 | 13.33° C | 43% | 1010.8 hPa | 0 mm | - | 1 W/m² | - |
| 1777848017 | 15° C | 36% | 1010.1 hPa | 0 mm | - | 27 W/m² | - |
| 1777846818 | 15.56° C | 35% | 1010.1 hPa | 0 mm | - | 118 W/m² | - |
| 1777845018 | 15.56° C | 35% | 1010.1 hPa | 0 mm | - | 30 W/m² | - |
| 1777843218 | 15° C | 37% | 1009.9 hPa | 0 mm | - | 34 W/m² | - |
| 1777842016 | 15° C | 37% | 1009.8 hPa | 0 mm | - | 44 W/m² | - |
| 1777833618 | 13.33° C | 41% | 1010.8 hPa | 0 mm | - | 172 W/m² | - |
| 1777831218 | 12.78° C | 42% | 1010.9 hPa | 0 mm | - | 227 W/m² | - |
| 1777828257 | 12.22° C | 42% | 1010.9 hPa | 0 mm | - | 122 W/m² | - |
| 1777825816 | 11.67° C | 44% | 1011.1 hPa | 0 mm | - | 167 W/m² | - |
| 1777820418 | 11.67° C | 48% | 1011.4 hPa | 0 mm | - | 78 W/m² | - |
| 1777819818 | 11.67° C | 50% | 1011.5 hPa | 0 mm | - | 370 W/m² | - |
| 1777818618 | 11.67° C | 51% | 1011.5 hPa | 0 mm | - | 140 W/m² | - |
| 1777815016 | 11.11° C | 52% | 1011.5 hPa | 0 mm | - | 628 W/m² | - |
| 1777812617 | 10° C | 54% | 1011.5 hPa | 0 mm | - | 488 W/m² | - |
* Rain latest hour (hover to see other rain measurements)
** Current wind speed in m/s (hover to see current wind gust speed)